sensor_id;sensor_type;location;lat;lon;timestamp;P1;durP1;ratioP1;P2;durP2;ratioP2
75520;SDS011;64102;48.628;9.002;2024-01-30T00:01:11;10.05;;;1.50;;
75520;SDS011;64102;48.628;9.002;2024-01-30T00:03:37;8.80;;;1.10;;
75520;SDS011;64102;48.628;9.002;2024-01-30T00:06:03;10.17;;;1.20;;
75520;SDS011;64102;48.628;9.002;2024-01-30T00:08:28;7.30;;;0.85;;
75520;SDS011;64102;48.628;9.002;2024-01-30T00:10:54;7.88;;;1.17;;
75520;SDS011;64102;48.628;9.002;2024-01-30T00:13:19;9.07;;;1.17;;
75520;SDS011;64102;48.628;9.002;2024-01-30T00:15:45;8.77;;;0.90;;
75520;SDS011;64102;48.628;9.002;2024-01-30T00:18:10;6.75;;;0.82;;
75520;SDS011;64102;48.628;9.002;2024-01-30T00:20:36;8.13;;;1.10;;
75520;SDS011;64102;48.628;9.002;2024-01-30T00:23:01;7.03;;;0.90;;
75520;SDS011;64102;48.628;9.002;2024-01-30T00:25:26;7.57;;;0.70;;
75520;SDS011;64102;48.628;9.002;2024-01-30T00:27:52;7.85;;;0.98;;
75520;SDS011;64102;48.628;9.002;2024-01-30T00:30:17;7.97;;;1.40;;
75520;SDS011;64102;48.628;9.002;2024-01-30T00:32:43;6.93;;;0.77;;
75520;SDS011;64102;48.628;9.002;2024-01-30T00:35:08;6.97;;;0.60;;
75520;SDS011;64102;48.628;9.002;2024-01-30T00:37:35;7.47;;;0.95;;
75520;SDS011;64102;48.628;9.002;2024-01-30T00:40:00;7.28;;;0.82;;
75520;SDS011;64102;48.628;9.002;2024-01-30T00:42:26;9.40;;;0.90;;
75520;SDS011;64102;48.628;9.002;2024-01-30T00:44:51;8.02;;;0.90;;
75520;SDS011;64102;48.628;9.002;2024-01-30T00:47:17;10.70;;;1.20;;
75520;SDS011;64102;48.628;9.002;2024-01-30T00:49:42;7.10;;;0.80;;
75520;SDS011;64102;48.628;9.002;2024-01-30T00:52:08;7.10;;;0.83;;
75520;SDS011;64102;48.628;9.002;2024-01-30T00:54:33;6.10;;;0.67;;
75520;SDS011;64102;48.628;9.002;2024-01-30T00:56:58;8.75;;;0.82;;
75520;SDS011;64102;48.628;9.002;2024-01-30T00:59:24;7.22;;;0.95;;
75520;SDS011;64102;48.628;9.002;2024-01-30T01:01:49;8.05;;;1.23;;
75520;SDS011;64102;48.628;9.002;2024-01-30T01:04:15;5.63;;;0.60;;
75520;SDS011;64102;48.628;9.002;2024-01-30T01:06:41;7.20;;;0.77;;
75520;SDS011;64102;48.628;9.002;2024-01-30T01:09:09;5.68;;;0.50;;
75520;SDS011;64102;48.628;9.002;2024-01-30T01:11:35;6.85;;;0.50;;
75520;SDS011;64102;48.628;9.002;2024-01-30T01:14:00;7.70;;;0.80;;
75520;SDS011;64102;48.628;9.002;2024-01-30T01:16:26;7.10;;;0.77;;
75520;SDS011;64102;48.628;9.002;2024-01-30T01:18:51;7.70;;;0.90;;
75520;SDS011;64102;48.628;9.002;2024-01-30T01:21:16;9.20;;;0.95;;
75520;SDS011;64102;48.628;9.002;2024-01-30T01:23:42;5.85;;;0.90;;
75520;SDS011;64102;48.628;9.002;2024-01-30T01:26:07;6.73;;;0.70;;
75520;SDS011;64102;48.628;9.002;2024-01-30T01:28:34;5.80;;;0.73;;
75520;SDS011;64102;48.628;9.002;2024-01-30T01:31:00;7.30;;;0.80;;
75520;SDS011;64102;48.628;9.002;2024-01-30T01:33:30;8.00;;;0.95;;
75520;SDS011;64102;48.628;9.002;2024-01-30T01:35:57;7.40;;;0.80;;
75520;SDS011;64102;48.628;9.002;2024-01-30T01:38:23;8.18;;;0.57;;
75520;SDS011;64102;48.628;9.002;2024-01-30T01:40:48;8.27;;;1.27;;
75520;SDS011;64102;48.628;9.002;2024-01-30T01:43:13;7.40;;;0.70;;
75520;SDS011;64102;48.628;9.002;2024-01-30T01:45:39;7.67;;;1.00;;
75520;SDS011;64102;48.628;9.002;2024-01-30T01:48:04;8.23;;;0.80;;
75520;SDS011;64102;48.628;9.002;2024-01-30T01:50:30;7.20;;;0.95;;
75520;SDS011;64102;48.628;9.002;2024-01-30T01:52:55;9.05;;;1.20;;
75520;SDS011;64102;48.628;9.002;2024-01-30T01:55:21;8.80;;;1.10;;
75520;SDS011;64102;48.628;9.002;2024-01-30T01:57:49;7.28;;;0.88;;
75520;SDS011;64102;48.628;9.002;2024-01-30T02:00:14;8.45;;;1.42;;
75520;SDS011;64102;48.628;9.002;2024-01-30T02:02:40;8.18;;;0.93;;
75520;SDS011;64102;48.628;9.002;2024-01-30T02:05:07;8.60;;;0.90;;
75520;SDS011;64102;48.628;9.002;2024-01-30T02:07:33;8.27;;;1.00;;
75520;SDS011;64102;48.628;9.002;2024-01-30T02:09:58;8.43;;;0.80;;
75520;SDS011;64102;48.628;9.002;2024-01-30T02:12:24;7.22;;;0.85;;
75520;SDS011;64102;48.628;9.002;2024-01-30T02:14:49;6.53;;;0.57;;
75520;SDS011;64102;48.628;9.002;2024-01-30T02:17:15;7.75;;;1.02;;
75520;SDS011;64102;48.628;9.002;2024-01-30T02:19:41;6.63;;;0.88;;
75520;SDS011;64102;48.628;9.002;2024-01-30T02:22:06;5.93;;;0.73;;
75520;SDS011;64102;48.628;9.002;2024-01-30T02:24:32;7.65;;;0.88;;
75520;SDS011;64102;48.628;9.002;2024-01-30T02:26:58;6.72;;;0.50;;
75520;SDS011;64102;48.628;9.002;2024-01-30T02:29:23;7.35;;;0.70;;
75520;SDS011;64102;48.628;9.002;2024-01-30T02:31:49;7.38;;;0.70;;
75520;SDS011;64102;48.628;9.002;2024-01-30T02:34:14;6.97;;;0.60;;
75520;SDS011;64102;48.628;9.002;2024-01-30T02:36:43;6.30;;;0.52;;
75520;SDS011;64102;48.628;9.002;2024-01-30T02:39:09;6.88;;;0.65;;
75520;SDS011;64102;48.628;9.002;2024-01-30T02:41:34;6.57;;;0.60;;
75520;SDS011;64102;48.628;9.002;2024-01-30T02:44:00;6.65;;;0.88;;
75520;SDS011;64102;48.628;9.002;2024-01-30T02:46:26;8.25;;;0.73;;
75520;SDS011;64102;48.628;9.002;2024-01-30T02:48:51;6.90;;;0.70;;
75520;SDS011;64102;48.628;9.002;2024-01-30T02:51:17;7.63;;;0.53;;
75520;SDS011;64102;48.628;9.002;2024-01-30T02:53:42;6.73;;;0.63;;
75520;SDS011;64102;48.628;9.002;2024-01-30T02:56:07;6.60;;;0.50;;
75520;SDS011;64102;48.628;9.002;2024-01-30T02:58:35;6.72;;;0.80;;
75520;SDS011;64102;48.628;9.002;2024-01-30T03:01:01;9.38;;;0.70;;
75520;SDS011;64102;48.628;9.002;2024-01-30T03:03:26;7.10;;;0.70;;
75520;SDS011;64102;48.628;9.002;2024-01-30T03:05:52;6.60;;;0.80;;
75520;SDS011;64102;48.628;9.002;2024-01-30T03:08:17;6.40;;;0.70;;
75520;SDS011;64102;48.628;9.002;2024-01-30T03:10:42;6.83;;;0.60;;
75520;SDS011;64102;48.628;9.002;2024-01-30T03:13:08;6.60;;;0.60;;
75520;SDS011;64102;48.628;9.002;2024-01-30T03:15:33;6.43;;;0.50;;
75520;SDS011;64102;48.628;9.002;2024-01-30T03:17:58;8.33;;;0.70;;
75520;SDS011;64102;48.628;9.002;2024-01-30T03:20:24;6.97;;;0.80;;
75520;SDS011;64102;48.628;9.002;2024-01-30T03:22:49;6.80;;;0.70;;
75520;SDS011;64102;48.628;9.002;2024-01-30T03:25:14;7.17;;;0.67;;
75520;SDS011;64102;48.628;9.002;2024-01-30T03:27:40;6.83;;;0.50;;
75520;SDS011;64102;48.628;9.002;2024-01-30T03:30:05;8.17;;;0.80;;
75520;SDS011;64102;48.628;9.002;2024-01-30T03:32:31;6.22;;;0.40;;
75520;SDS011;64102;48.628;9.002;2024-01-30T03:34:56;6.40;;;0.70;;
75520;SDS011;64102;48.628;9.002;2024-01-30T03:37:23;7.03;;;1.23;;
75520;SDS011;64102;48.628;9.002;2024-01-30T03:39:48;6.78;;;0.73;;
75520;SDS011;64102;48.628;9.002;2024-01-30T03:42:14;8.45;;;0.55;;
75520;SDS011;64102;48.628;9.002;2024-01-30T03:44:39;7.43;;;0.60;;
75520;SDS011;64102;48.628;9.002;2024-01-30T03:47:04;5.57;;;0.55;;
75520;SDS011;64102;48.628;9.002;2024-01-30T03:49:30;6.88;;;0.60;;
75520;SDS011;64102;48.628;9.002;2024-01-30T03:51:55;7.17;;;0.77;;
75520;SDS011;64102;48.628;9.002;2024-01-30T03:54:20;5.77;;;0.70;;
75520;SDS011;64102;48.628;9.002;2024-01-30T03:56:46;6.03;;;0.50;;
75520;SDS011;64102;48.628;9.002;2024-01-30T03:59:11;7.18;;;0.60;;
75520;SDS011;64102;48.628;9.002;2024-01-30T04:01:36;8.30;;;0.93;;
75520;SDS011;64102;48.628;9.002;2024-01-30T04:04:02;8.30;;;0.70;;
75520;SDS011;64102;48.628;9.002;2024-01-30T04:06:27;8.17;;;0.87;;
75520;SDS011;64102;48.628;9.002;2024-01-30T04:08:52;6.68;;;0.93;;
75520;SDS011;64102;48.628;9.002;2024-01-30T04:11:18;6.03;;;0.50;;
75520;SDS011;64102;48.628;9.002;2024-01-30T04:13:44;6.78;;;0.80;;
75520;SDS011;64102;48.628;9.002;2024-01-30T04:16:18;7.43;;;0.80;;
75520;SDS011;64102;48.628;9.002;2024-01-30T04:18:45;7.30;;;0.63;;
75520;SDS011;64102;48.628;9.002;2024-01-30T04:21:11;6.40;;;1.00;;
75520;SDS011;64102;48.628;9.002;2024-01-30T04:23:36;8.93;;;1.03;;
75520;SDS011;64102;48.628;9.002;2024-01-30T04:26:01;7.00;;;0.90;;
75520;SDS011;64102;48.628;9.002;2024-01-30T04:28:28;8.15;;;0.70;;
75520;SDS011;64102;48.628;9.002;2024-01-30T04:30:53;9.00;;;0.98;;
75520;SDS011;64102;48.628;9.002;2024-01-30T04:33:19;6.22;;;0.70;;
75520;SDS011;64102;48.628;9.002;2024-01-30T04:35:44;8.63;;;1.35;;
75520;SDS011;64102;48.628;9.002;2024-01-30T04:38:09;8.30;;;0.87;;
75520;SDS011;64102;48.628;9.002;2024-01-30T04:40:35;6.07;;;0.67;;
75520;SDS011;64102;48.628;9.002;2024-01-30T04:43:00;10.70;;;1.40;;
75520;SDS011;64102;48.628;9.002;2024-01-30T04:45:25;8.97;;;1.23;;
75520;SDS011;64102;48.628;9.002;2024-01-30T04:47:51;9.10;;;1.13;;
75520;SDS011;64102;48.628;9.002;2024-01-30T04:50:16;7.38;;;0.73;;
75520;SDS011;64102;48.628;9.002;2024-01-30T04:52:41;8.23;;;1.17;;
75520;SDS011;64102;48.628;9.002;2024-01-30T04:55:07;8.00;;;0.70;;
75520;SDS011;64102;48.628;9.002;2024-01-30T04:57:32;8.38;;;1.00;;
75520;SDS011;64102;48.628;9.002;2024-01-30T04:59:58;7.30;;;0.95;;
75520;SDS011;64102;48.628;9.002;2024-01-30T05:02:24;7.20;;;0.77;;
75520;SDS011;64102;48.628;9.002;2024-01-30T05:04:49;8.90;;;0.90;;
75520;SDS011;64102;48.628;9.002;2024-01-30T05:07:14;8.37;;;1.20;;
75520;SDS011;64102;48.628;9.002;2024-01-30T05:09:40;7.37;;;1.10;;
75520;SDS011;64102;48.628;9.002;2024-01-30T05:12:06;8.37;;;1.00;;
75520;SDS011;64102;48.628;9.002;2024-01-30T05:14:32;8.63;;;1.02;;
75520;SDS011;64102;48.628;9.002;2024-01-30T05:16:57;8.43;;;1.20;;
75520;SDS011;64102;48.628;9.002;2024-01-30T05:19:22;7.93;;;1.03;;
75520;SDS011;64102;48.628;9.002;2024-01-30T05:21:48;9.45;;;1.30;;
75520;SDS011;64102;48.628;9.002;2024-01-30T05:24:14;8.68;;;0.90;;
75520;SDS011;64102;48.628;9.002;2024-01-30T05:26:39;6.77;;;1.07;;
75520;SDS011;64102;48.628;9.002;2024-01-30T05:29:05;8.93;;;1.00;;
75520;SDS011;64102;48.628;9.002;2024-01-30T05:31:31;10.13;;;1.25;;
75520;SDS011;64102;48.628;9.002;2024-01-30T05:33:56;7.75;;;1.02;;
75520;SDS011;64102;48.628;9.002;2024-01-30T05:36:22;8.73;;;1.20;;
75520;SDS011;64102;48.628;9.002;2024-01-30T05:38:47;8.93;;;1.30;;
75520;SDS011;64102;48.628;9.002;2024-01-30T05:41:12;8.03;;;1.10;;
75520;SDS011;64102;48.628;9.002;2024-01-30T05:43:38;8.02;;;1.13;;
75520;SDS011;64102;48.628;9.002;2024-01-30T05:46:03;7.95;;;0.90;;
75520;SDS011;64102;48.628;9.002;2024-01-30T05:48:29;8.75;;;1.27;;
75520;SDS011;64102;48.628;9.002;2024-01-30T05:50:54;22.88;;;4.63;;
75520;SDS011;64102;48.628;9.002;2024-01-30T05:53:19;12.73;;;1.85;;
75520;SDS011;64102;48.628;9.002;2024-01-30T05:55:45;10.40;;;1.20;;
75520;SDS011;64102;48.628;9.002;2024-01-30T05:58:10;10.05;;;1.83;;
75520;SDS011;64102;48.628;9.002;2024-01-30T06:00:36;9.02;;;1.25;;
75520;SDS011;64102;48.628;9.002;2024-01-30T06:03:01;11.57;;;1.63;;
75520;SDS011;64102;48.628;9.002;2024-01-30T06:05:27;11.35;;;1.85;;
75520;SDS011;64102;48.628;9.002;2024-01-30T06:07:52;8.85;;;1.42;;
75520;SDS011;64102;48.628;9.002;2024-01-30T06:10:18;8.98;;;1.17;;
75520;SDS011;64102;48.628;9.002;2024-01-30T06:12:44;11.82;;;1.92;;
75520;SDS011;64102;48.628;9.002;2024-01-30T06:15:09;13.70;;;3.07;;
75520;SDS011;64102;48.628;9.002;2024-01-30T06:17:35;11.40;;;2.15;;
75520;SDS011;64102;48.628;9.002;2024-01-30T06:20:00;14.10;;;3.03;;
75520;SDS011;64102;48.628;9.002;2024-01-30T06:22:25;15.02;;;3.85;;
75520;SDS011;64102;48.628;9.002;2024-01-30T06:24:51;15.17;;;3.17;;
75520;SDS011;64102;48.628;9.002;2024-01-30T06:27:16;11.27;;;1.65;;
75520;SDS011;64102;48.628;9.002;2024-01-30T06:29:42;10.60;;;1.33;;
75520;SDS011;64102;48.628;9.002;2024-01-30T06:32:08;9.25;;;1.27;;
75520;SDS011;64102;48.628;9.002;2024-01-30T06:34:34;8.13;;;1.00;;
75520;SDS011;64102;48.628;9.002;2024-01-30T06:36:59;9.27;;;1.20;;
75520;SDS011;64102;48.628;9.002;2024-01-30T06:39:25;13.55;;;2.47;;
75520;SDS011;64102;48.628;9.002;2024-01-30T06:41:51;9.90;;;1.95;;
75520;SDS011;64102;48.628;9.002;2024-01-30T06:44:16;12.43;;;1.80;;
75520;SDS011;64102;48.628;9.002;2024-01-30T06:46:42;9.30;;;1.23;;
75520;SDS011;64102;48.628;9.002;2024-01-30T06:49:07;12.25;;;1.75;;
75520;SDS011;64102;48.628;9.002;2024-01-30T06:51:33;13.98;;;2.72;;
75520;SDS011;64102;48.628;9.002;2024-01-30T06:53:58;12.70;;;2.30;;
75520;SDS011;64102;48.628;9.002;2024-01-30T06:56:23;9.40;;;1.73;;
75520;SDS011;64102;48.628;9.002;2024-01-30T06:58:52;9.43;;;1.67;;
75520;SDS011;64102;48.628;9.002;2024-01-30T07:01:17;12.43;;;2.20;;
75520;SDS011;64102;48.628;9.002;2024-01-30T07:03:43;10.40;;;1.70;;
75520;SDS011;64102;48.628;9.002;2024-01-30T07:06:08;10.98;;;1.52;;
75520;SDS011;64102;48.628;9.002;2024-01-30T07:08:35;11.82;;;1.73;;
75520;SDS011;64102;48.628;9.002;2024-01-30T07:11:02;13.25;;;2.25;;
75520;SDS011;64102;48.628;9.002;2024-01-30T07:13:27;10.55;;;1.83;;
75520;SDS011;64102;48.628;9.002;2024-01-30T07:15:53;11.77;;;1.70;;
75520;SDS011;64102;48.628;9.002;2024-01-30T07:18:19;12.35;;;1.27;;
75520;SDS011;64102;48.628;9.002;2024-01-30T07:20:44;11.95;;;1.58;;
75520;SDS011;64102;48.628;9.002;2024-01-30T07:23:13;7.50;;;1.15;;
75520;SDS011;64102;48.628;9.002;2024-01-30T07:25:40;8.63;;;0.88;;
75520;SDS011;64102;48.628;9.002;2024-01-30T07:28:07;7.05;;;0.60;;
75520;SDS011;64102;48.628;9.002;2024-01-30T07:30:34;6.35;;;0.50;;
75520;SDS011;64102;48.628;9.002;2024-01-30T07:33:00;4.88;;;0.40;;
75520;SDS011;64102;48.628;9.002;2024-01-30T07:35:25;7.80;;;0.70;;
75520;SDS011;64102;48.628;9.002;2024-01-30T07:37:51;7.07;;;1.10;;
75520;SDS011;64102;48.628;9.002;2024-01-30T07:40:16;8.17;;;1.17;;
75520;SDS011;64102;48.628;9.002;2024-01-30T07:42:42;9.50;;;1.83;;
75520;SDS011;64102;48.628;9.002;2024-01-30T07:45:07;11.02;;;2.13;;
75520;SDS011;64102;48.628;9.002;2024-01-30T07:47:33;11.27;;;1.95;;
75520;SDS011;64102;48.628;9.002;2024-01-30T07:49:59;14.10;;;3.37;;
75520;SDS011;64102;48.628;9.002;2024-01-30T07:52:24;7.13;;;0.70;;
75520;SDS011;64102;48.628;9.002;2024-01-30T07:54:50;8.45;;;0.90;;
75520;SDS011;64102;48.628;9.002;2024-01-30T07:57:15;7.45;;;0.90;;
75520;SDS011;64102;48.628;9.002;2024-01-30T07:59:42;10.60;;;1.58;;
75520;SDS011;64102;48.628;9.002;2024-01-30T08:02:09;7.53;;;1.30;;
75520;SDS011;64102;48.628;9.002;2024-01-30T08:04:34;7.63;;;0.73;;
75520;SDS011;64102;48.628;9.002;2024-01-30T08:06:59;7.17;;;0.90;;
75520;SDS011;64102;48.628;9.002;2024-01-30T08:09:25;7.40;;;1.00;;
75520;SDS011;64102;48.628;9.002;2024-01-30T08:11:50;7.07;;;0.77;;
75520;SDS011;64102;48.628;9.002;2024-01-30T08:14:15;8.73;;;1.00;;
75520;SDS011;64102;48.628;9.002;2024-01-30T08:16:40;8.47;;;1.10;;
75520;SDS011;64102;48.628;9.002;2024-01-30T08:19:06;9.37;;;1.43;;
75520;SDS011;64102;48.628;9.002;2024-01-30T08:21:31;9.10;;;1.67;;
75520;SDS011;64102;48.628;9.002;2024-01-30T08:24:01;6.93;;;0.93;;
75520;SDS011;64102;48.628;9.002;2024-01-30T08:26:30;7.53;;;1.02;;
75520;SDS011;64102;48.628;9.002;2024-01-30T08:28:56;7.55;;;1.08;;
75520;SDS011;64102;48.628;9.002;2024-01-30T08:31:21;6.90;;;0.90;;
75520;SDS011;64102;48.628;9.002;2024-01-30T08:33:47;7.93;;;1.00;;
75520;SDS011;64102;48.628;9.002;2024-01-30T08:36:12;8.43;;;0.83;;
75520;SDS011;64102;48.628;9.002;2024-01-30T08:38:37;6.33;;;0.70;;
75520;SDS011;64102;48.628;9.002;2024-01-30T08:41:03;8.80;;;0.80;;
75520;SDS011;64102;48.628;9.002;2024-01-30T08:43:28;7.68;;;0.88;;
75520;SDS011;64102;48.628;9.002;2024-01-30T08:45:54;8.33;;;0.80;;
75520;SDS011;64102;48.628;9.002;2024-01-30T08:48:19;6.73;;;0.90;;
75520;SDS011;64102;48.628;9.002;2024-01-30T08:50:44;7.37;;;0.90;;
75520;SDS011;64102;48.628;9.002;2024-01-30T08:53:09;8.60;;;1.20;;
75520;SDS011;64102;48.628;9.002;2024-01-30T08:55:35;8.87;;;0.83;;
75520;SDS011;64102;48.628;9.002;2024-01-30T08:58:00;10.10;;;1.00;;
75520;SDS011;64102;48.628;9.002;2024-01-30T09:00:25;6.47;;;0.90;;
75520;SDS011;64102;48.628;9.002;2024-01-30T09:02:51;7.95;;;0.93;;
75520;SDS011;64102;48.628;9.002;2024-01-30T09:05:16;7.73;;;0.70;;
75520;SDS011;64102;48.628;9.002;2024-01-30T09:07:41;7.72;;;1.33;;
75520;SDS011;64102;48.628;9.002;2024-01-30T09:10:07;7.10;;;0.60;;
75520;SDS011;64102;48.628;9.002;2024-01-30T09:12:32;6.97;;;0.80;;
75520;SDS011;64102;48.628;9.002;2024-01-30T09:14:58;7.95;;;0.82;;
75520;SDS011;64102;48.628;9.002;2024-01-30T09:17:23;8.20;;;1.25;;
75520;SDS011;64102;48.628;9.002;2024-01-30T09:19:48;8.60;;;1.10;;
75520;SDS011;64102;48.628;9.002;2024-01-30T09:22:14;7.43;;;1.00;;
75520;SDS011;64102;48.628;9.002;2024-01-30T09:24:39;6.70;;;0.50;;
75520;SDS011;64102;48.628;9.002;2024-01-30T09:27:05;7.35;;;0.60;;
75520;SDS011;64102;48.628;9.002;2024-01-30T09:29:31;7.68;;;0.60;;
75520;SDS011;64102;48.628;9.002;2024-01-30T09:31:58;5.75;;;0.40;;
75520;SDS011;64102;48.628;9.002;2024-01-30T09:34:23;4.70;;;0.50;;
75520;SDS011;64102;48.628;9.002;2024-01-30T09:36:48;5.43;;;0.40;;
75520;SDS011;64102;48.628;9.002;2024-01-30T09:39:14;4.60;;;0.40;;
75520;SDS011;64102;48.628;9.002;2024-01-30T09:42:24;4.80;;;0.50;;
75520;SDS011;64102;48.628;9.002;2024-01-30T09:44:34;7.35;;;0.30;;
75520;SDS011;64102;48.628;9.002;2024-01-30T09:47:01;4.78;;;0.38;;
75520;SDS011;64102;48.628;9.002;2024-01-30T09:49:33;4.80;;;0.30;;
75520;SDS011;64102;48.628;9.002;2024-01-30T09:52:00;4.45;;;0.30;;
75520;SDS011;64102;48.628;9.002;2024-01-30T09:54:27;5.25;;;0.25;;
75520;SDS011;64102;48.628;9.002;2024-01-30T09:56:55;3.92;;;0.25;;
75520;SDS011;64102;48.628;9.002;2024-01-30T09:59:20;7.03;;;0.50;;
75520;SDS011;64102;48.628;9.002;2024-01-30T10:01:45;4.93;;;0.70;;
75520;SDS011;64102;48.628;9.002;2024-01-30T10:04:11;5.90;;;0.50;;
75520;SDS011;64102;48.628;9.002;2024-01-30T10:06:37;5.60;;;0.40;;
75520;SDS011;64102;48.628;9.002;2024-01-30T10:09:03;5.88;;;0.40;;
75520;SDS011;64102;48.628;9.002;2024-01-30T10:11:29;4.47;;;0.35;;
75520;SDS011;64102;48.628;9.002;2024-01-30T10:13:55;4.75;;;0.43;;
75520;SDS011;64102;48.628;9.002;2024-01-30T10:16:20;4.70;;;0.30;;
75520;SDS011;64102;48.628;9.002;2024-01-30T10:18:46;4.60;;;0.20;;
75520;SDS011;64102;48.628;9.002;2024-01-30T10:21:12;4.10;;;0.22;;
75520;SDS011;64102;48.628;9.002;2024-01-30T10:23:37;3.73;;;0.20;;
75520;SDS011;64102;48.628;9.002;2024-01-30T10:26:07;3.92;;;0.22;;
75520;SDS011;64102;48.628;9.002;2024-01-30T10:28:33;4.70;;;0.63;;
75520;SDS011;64102;48.628;9.002;2024-01-30T10:31:01;4.57;;;0.20;;
75520;SDS011;64102;48.628;9.002;2024-01-30T10:33:30;4.35;;;0.20;;
75520;SDS011;64102;48.628;9.002;2024-01-30T10:35:58;4.28;;;0.30;;
75520;SDS011;64102;48.628;9.002;2024-01-30T10:38:28;3.28;;;0.22;;
75520;SDS011;64102;48.628;9.002;2024-01-30T10:40:56;3.88;;;0.20;;
75520;SDS011;64102;48.628;9.002;2024-01-30T10:43:22;2.95;;;0.20;;
75520;SDS011;64102;48.628;9.002;2024-01-30T10:45:49;4.38;;;0.30;;
75520;SDS011;64102;48.628;9.002;2024-01-30T10:48:18;4.18;;;0.20;;
75520;SDS011;64102;48.628;9.002;2024-01-30T10:50:48;4.13;;;0.22;;
75520;SDS011;64102;48.628;9.002;2024-01-30T10:53:15;3.17;;;0.20;;
75520;SDS011;64102;48.628;9.002;2024-01-30T10:55:42;3.15;;;0.20;;
75520;SDS011;64102;48.628;9.002;2024-01-30T10:58:08;2.90;;;0.20;;
75520;SDS011;64102;48.628;9.002;2024-01-30T11:00:36;6.07;;;0.30;;
75520;SDS011;64102;48.628;9.002;2024-01-30T11:03:02;4.00;;;0.20;;
75520;SDS011;64102;48.628;9.002;2024-01-30T11:05:28;3.03;;;0.20;;
75520;SDS011;64102;48.628;9.002;2024-01-30T11:07:54;4.18;;;0.30;;
75520;SDS011;64102;48.628;9.002;2024-01-30T11:10:19;4.50;;;0.30;;
75520;SDS011;64102;48.628;9.002;2024-01-30T11:12:45;4.20;;;0.20;;
75520;SDS011;64102;48.628;9.002;2024-01-30T11:15:17;3.20;;;0.20;;
75520;SDS011;64102;48.628;9.002;2024-01-30T11:17:44;3.35;;;0.20;;
75520;SDS011;64102;48.628;9.002;2024-01-30T11:22:53;4.47;;;0.20;;
75520;SDS011;64102;48.628;9.002;2024-01-30T11:25:21;3.78;;;0.20;;
75520;SDS011;64102;48.628;9.002;2024-01-30T11:27:49;4.50;;;0.28;;
75520;SDS011;64102;48.628;9.002;2024-01-30T11:30:25;3.65;;;0.20;;
75520;SDS011;64102;48.628;9.002;2024-01-30T11:33:01;4.93;;;0.40;;
75520;SDS011;64102;48.628;9.002;2024-01-30T11:35:43;4.43;;;0.30;;
75520;SDS011;64102;48.628;9.002;2024-01-30T11:38:13;4.57;;;0.40;;
75520;SDS011;64102;48.628;9.002;2024-01-30T11:40:39;3.63;;;0.20;;
75520;SDS011;64102;48.628;9.002;2024-01-30T11:43:06;4.70;;;0.20;;
75520;SDS011;64102;48.628;9.002;2024-01-30T11:45:33;3.83;;;0.17;;
75520;SDS011;64102;48.628;9.002;2024-01-30T11:47:59;3.63;;;0.30;;
75520;SDS011;64102;48.628;9.002;2024-01-30T11:50:31;5.97;;;0.30;;
75520;SDS011;64102;48.628;9.002;2024-01-30T11:52:57;4.30;;;0.30;;
75520;SDS011;64102;48.628;9.002;2024-01-30T11:55:24;5.38;;;0.30;;
75520;SDS011;64102;48.628;9.002;2024-01-30T11:57:49;3.25;;;0.25;;
75520;SDS011;64102;48.628;9.002;2024-01-30T12:00:15;3.97;;;0.30;;
75520;SDS011;64102;48.628;9.002;2024-01-30T12:02:42;3.47;;;0.22;;
75520;SDS011;64102;48.628;9.002;2024-01-30T12:05:08;4.22;;;0.30;;
75520;SDS011;64102;48.628;9.002;2024-01-30T12:07:34;4.85;;;0.20;;
75520;SDS011;64102;48.628;9.002;2024-01-30T12:10:00;5.40;;;0.30;;
75520;SDS011;64102;48.628;9.002;2024-01-30T12:12:25;4.70;;;0.40;;
75520;SDS011;64102;48.628;9.002;2024-01-30T12:14:52;4.32;;;0.40;;
75520;SDS011;64102;48.628;9.002;2024-01-30T12:17:30;3.10;;;0.20;;
75520;SDS011;64102;48.628;9.002;2024-01-30T12:20:08;4.10;;;0.20;;
75520;SDS011;64102;48.628;9.002;2024-01-30T12:22:36;4.50;;;0.30;;
75520;SDS011;64102;48.628;9.002;2024-01-30T12:25:08;4.65;;;0.30;;
75520;SDS011;64102;48.628;9.002;2024-01-30T12:27:35;4.65;;;0.20;;
75520;SDS011;64102;48.628;9.002;2024-01-30T12:30:02;6.22;;;0.50;;
75520;SDS011;64102;48.628;9.002;2024-01-30T12:32:30;4.88;;;0.32;;
75520;SDS011;64102;48.628;9.002;2024-01-30T12:34:55;4.40;;;0.33;;
75520;SDS011;64102;48.628;9.002;2024-01-30T12:37:21;5.68;;;0.50;;
75520;SDS011;64102;48.628;9.002;2024-01-30T12:39:49;6.05;;;0.43;;
75520;SDS011;64102;48.628;9.002;2024-01-30T12:42:16;3.53;;;0.20;;
75520;SDS011;64102;48.628;9.002;2024-01-30T12:44:41;3.33;;;0.30;;
75520;SDS011;64102;48.628;9.002;2024-01-30T12:47:08;4.05;;;0.20;;
75520;SDS011;64102;48.628;9.002;2024-01-30T12:49:34;5.50;;;0.30;;
75520;SDS011;64102;48.628;9.002;2024-01-30T12:52:00;5.23;;;0.30;;
75520;SDS011;64102;48.628;9.002;2024-01-30T12:54:25;5.00;;;0.35;;
75520;SDS011;64102;48.628;9.002;2024-01-30T12:56:51;3.22;;;0.30;;
75520;SDS011;64102;48.628;9.002;2024-01-30T12:59:16;2.95;;;0.28;;
75520;SDS011;64102;48.628;9.002;2024-01-30T13:01:42;3.78;;;0.20;;
75520;SDS011;64102;48.628;9.002;2024-01-30T13:04:08;3.25;;;0.20;;
75520;SDS011;64102;48.628;9.002;2024-01-30T13:06:33;5.03;;;0.40;;
75520;SDS011;64102;48.628;9.002;2024-01-30T13:08:58;5.13;;;0.32;;
75520;SDS011;64102;48.628;9.002;2024-01-30T13:11:24;4.15;;;0.50;;
75520;SDS011;64102;48.628;9.002;2024-01-30T13:13:50;3.67;;;0.22;;
75520;SDS011;64102;48.628;9.002;2024-01-30T13:16:16;4.43;;;0.40;;
75520;SDS011;64102;48.628;9.002;2024-01-30T13:18:41;5.65;;;0.50;;
75520;SDS011;64102;48.628;9.002;2024-01-30T13:21:07;3.50;;;0.38;;
75520;SDS011;64102;48.628;9.002;2024-01-30T13:23:32;5.27;;;0.20;;
75520;SDS011;64102;48.628;9.002;2024-01-30T13:25:57;4.47;;;0.60;;
75520;SDS011;64102;48.628;9.002;2024-01-30T13:28:23;6.40;;;0.50;;
75520;SDS011;64102;48.628;9.002;2024-01-30T13:30:50;5.07;;;0.30;;
75520;SDS011;64102;48.628;9.002;2024-01-30T13:33:16;5.57;;;0.50;;
75520;SDS011;64102;48.628;9.002;2024-01-30T13:35:41;8.32;;;0.55;;
75520;SDS011;64102;48.628;9.002;2024-01-30T13:38:07;4.88;;;0.30;;
75520;SDS011;64102;48.628;9.002;2024-01-30T13:40:33;4.82;;;0.30;;
75520;SDS011;64102;48.628;9.002;2024-01-30T13:42:58;5.97;;;0.57;;
75520;SDS011;64102;48.628;9.002;2024-01-30T13:45:23;5.23;;;0.30;;
75520;SDS011;64102;48.628;9.002;2024-01-30T13:47:49;4.97;;;0.30;;
75520;SDS011;64102;48.628;9.002;2024-01-30T13:50:14;4.63;;;0.33;;
75520;SDS011;64102;48.628;9.002;2024-01-30T13:52:41;3.53;;;0.30;;
75520;SDS011;64102;48.628;9.002;2024-01-30T13:55:08;4.88;;;0.43;;
75520;SDS011;64102;48.628;9.002;2024-01-30T13:57:35;4.95;;;0.50;;
75520;SDS011;64102;48.628;9.002;2024-01-30T14:00:01;4.32;;;0.40;;
75520;SDS011;64102;48.628;9.002;2024-01-30T14:02:30;5.50;;;0.35;;
75520;SDS011;64102;48.628;9.002;2024-01-30T14:04:55;4.70;;;0.30;;
75520;SDS011;64102;48.628;9.002;2024-01-30T14:07:21;5.33;;;0.40;;
75520;SDS011;64102;48.628;9.002;2024-01-30T14:09:47;5.28;;;0.40;;
75520;SDS011;64102;48.628;9.002;2024-01-30T14:12:13;4.55;;;0.40;;
75520;SDS011;64102;48.628;9.002;2024-01-30T14:14:38;4.80;;;0.40;;
75520;SDS011;64102;48.628;9.002;2024-01-30T14:17:03;4.10;;;0.38;;
75520;SDS011;64102;48.628;9.002;2024-01-30T14:19:32;5.82;;;0.40;;
75520;SDS011;64102;48.628;9.002;2024-01-30T14:22:00;5.47;;;0.50;;
75520;SDS011;64102;48.628;9.002;2024-01-30T14:24:26;4.57;;;0.30;;
75520;SDS011;64102;48.628;9.002;2024-01-30T14:26:52;4.83;;;0.50;;
75520;SDS011;64102;48.628;9.002;2024-01-30T14:29:17;6.95;;;0.50;;
75520;SDS011;64102;48.628;9.002;2024-01-30T14:31:42;6.40;;;0.60;;
75520;SDS011;64102;48.628;9.002;2024-01-30T14:34:08;6.60;;;0.60;;
75520;SDS011;64102;48.628;9.002;2024-01-30T14:36:35;5.47;;;0.40;;
75520;SDS011;64102;48.628;9.002;2024-01-30T14:39:01;7.45;;;0.60;;
75520;SDS011;64102;48.628;9.002;2024-01-30T14:41:28;5.82;;;0.40;;